Mallam Aminu Kano International Airport

Airport
ICAO code: 
DNKN
IATA Code: 
KAN
Summary
ICAO Region: 
AFI
Territory: 
Location: 
Kano, Kano State
Serving: 
Kano
Elevation: 
1562 ft
Coordinates: 
Aerial View: 
12° 2' 54.996" N, 8° 31' 19.992" E
Metar
Observation
DNKN 090400Z 00000KT 8000 NSC 13/02 Q1017 NOSIG
Station
Kano
Date/Time
2021-12-09 04:00:00
Wind direction
Wind speed
00 kts
Lowest cloud amount
nil significant cloud
Temperature
13°C
Dew point
2°C
Humidity
47%
QNH
1017 hPa
Weather condition
n/a

Mallam Aminu Kano International Airport is an airport serving Kano, the capital city of Kano State of Nigeria.

Climatology

Warm Steppe climate (Köppen climate classification BSh)

Runways

Designator Length Width Surface Rops
5/23 2451 45 ASP Yes/Yes
6/24 3301 60 ASP Yes/Yes
Airport map: 
Aerial View: 

SKYbrary Partners:

Safety knowledge contributed by: